createdAt,value
2019-05-11T00:00:49.012Z,0.00
2019-05-11T00:01:49.004Z,0.00
2019-05-11T00:02:48.993Z,0.00
2019-05-11T00:03:48.991Z,0.00
2019-05-11T00:04:48.979Z,0.00
2019-05-11T00:05:48.962Z,0.00
2019-05-11T00:06:48.949Z,0.00
2019-05-11T00:07:48.941Z,0.00
2019-05-11T00:08:48.929Z,0.00
2019-05-11T00:09:57.474Z,0.00
2019-05-11T00:10:49.913Z,0.00
2019-05-11T00:11:48.899Z,0.00
2019-05-11T00:12:48.888Z,0.00
2019-05-11T00:13:48.879Z,0.00
2019-05-11T00:14:48.865Z,0.00
2019-05-11T00:15:48.860Z,0.00
2019-05-11T00:16:48.842Z,0.00
2019-05-11T00:17:48.830Z,0.00
2019-05-11T00:18:48.817Z,0.00
2019-05-11T00:19:48.808Z,0.00
2019-05-11T00:20:48.804Z,0.00
2019-05-11T00:21:48.786Z,0.00
2019-05-11T00:22:48.775Z,0.00
2019-05-11T00:23:48.763Z,0.00
2019-05-11T00:24:48.753Z,0.00
2019-05-11T00:25:48.757Z,0.00
2019-05-11T00:26:48.735Z,0.00
2019-05-11T00:27:48.720Z,0.00
2019-05-11T00:28:48.711Z,0.00
2019-05-11T00:29:48.700Z,0.00
2019-05-11T00:30:48.698Z,0.00
2019-05-11T00:31:48.679Z,0.00
2019-05-11T00:32:48.672Z,0.00
2019-05-11T00:33:48.656Z,0.00
2019-05-11T00:34:48.647Z,0.00
2019-05-11T00:35:48.643Z,0.00
2019-05-11T00:36:48.629Z,0.00
2019-05-11T00:37:48.614Z,0.00
2019-05-11T00:38:48.601Z,0.00
2019-05-11T00:39:48.590Z,0.00
2019-05-11T00:40:48.588Z,0.00
2019-05-11T00:41:48.571Z,0.00
2019-05-11T00:42:48.557Z,0.00
2019-05-11T00:43:48.555Z,0.00
2019-05-11T00:44:48.539Z,0.00
2019-05-11T00:45:48.539Z,0.00
2019-05-11T00:46:48.515Z,0.00
2019-05-11T00:47:48.503Z,0.00
2019-05-11T00:48:48.495Z,0.00
2019-05-11T00:49:48.482Z,0.00
2019-05-11T00:50:48.478Z,0.00
2019-05-11T00:51:48.458Z,0.00
2019-05-11T00:52:48.449Z,0.00
2019-05-11T00:53:48.441Z,0.00
2019-05-11T00:54:48.452Z,0.00
2019-05-11T00:55:48.424Z,0.00
2019-05-11T00:56:48.407Z,0.00
2019-05-11T00:57:48.394Z,0.00
2019-05-11T00:58:50.900Z,0.00
2019-05-11T00:59:48.375Z,0.00
2019-05-11T01:00:48.370Z,0.00
2019-05-11T01:01:48.352Z,0.00
2019-05-11T01:02:48.340Z,0.00
2019-05-11T01:03:48.331Z,0.00
2019-05-11T01:04:48.328Z,0.00
2019-05-11T01:05:48.324Z,0.00
2019-05-11T01:06:48.293Z,0.00
2019-05-11T01:07:48.287Z,0.00
2019-05-11T01:08:48.275Z,0.00
2019-05-11T01:09:48.262Z,0.00
2019-05-11T01:10:48.305Z,0.00
2019-05-11T01:11:48.242Z,0.00
2019-05-11T01:12:48.231Z,0.00
2019-05-11T01:13:48.217Z,0.00
2019-05-11T01:14:48.210Z,0.00
2019-05-11T01:15:48.204Z,0.00
2019-05-11T01:16:48.188Z,0.00
2019-05-11T01:17:48.178Z,0.00
2019-05-11T01:18:48.163Z,0.00
2019-05-11T01:19:48.152Z,0.00
2019-05-11T01:20:48.175Z,0.00
2019-05-11T01:21:48.132Z,0.00
2019-05-11T01:22:48.118Z,0.00
2019-05-11T01:23:48.109Z,0.00
2019-05-11T01:24:48.096Z,0.00
2019-05-11T01:25:48.085Z,0.00
2019-05-11T01:26:48.085Z,0.00
2019-05-11T01:27:48.065Z,0.00
2019-05-11T01:28:48.053Z,0.00
2019-05-11T01:29:48.045Z,0.00
2019-05-11T01:30:48.032Z,0.00
2019-05-11T01:31:48.028Z,0.00
2019-05-11T01:32:48.012Z,0.00
2019-05-11T01:33:48.001Z,0.00
2019-05-11T01:34:47.987Z,0.00
2019-05-11T01:35:50.983Z,0.00
2019-05-11T01:36:47.979Z,0.00
2019-05-11T01:37:47.970Z,0.00
2019-05-11T01:38:47.943Z,0.00
2019-05-11T01:39:47.938Z,0.00
2019-05-11T01:40:58.047Z,0.00
2019-05-11T01:41:48.918Z,0.00
2019-05-11T01:42:47.902Z,0.00
2019-05-11T01:43:47.891Z,0.00
2019-05-11T01:44:47.885Z,0.00
2019-05-11T01:45:47.867Z,0.00
2019-05-11T01:46:47.868Z,0.00
2019-05-11T01:47:47.855Z,0.00
2019-05-11T01:48:47.837Z,0.00
2019-05-11T01:49:47.830Z,0.00
2019-05-11T01:50:47.811Z,0.00
2019-05-11T01:51:47.814Z,0.00
2019-05-11T01:52:47.790Z,0.00
2019-05-11T01:53:48.213Z,0.00
2019-05-11T01:54:47.774Z,0.00
2019-05-11T01:55:47.762Z,0.00
2019-05-11T01:56:47.758Z,0.00
2019-05-11T01:57:47.737Z,0.00
2019-05-11T01:58:47.728Z,0.00
2019-05-11T01:59:47.715Z,0.00
2019-05-11T02:00:47.709Z,0.00
2019-05-11T02:01:47.705Z,0.00
2019-05-11T02:02:47.686Z,0.00
2019-05-11T02:03:47.730Z,0.00
2019-05-11T02:04:47.661Z,0.00
2019-05-11T02:05:51.196Z,0.00
2019-05-11T02:06:47.649Z,0.00
2019-05-11T02:07:47.634Z,0.00
2019-05-11T02:08:47.622Z,0.00
2019-05-11T02:09:47.608Z,0.00
2019-05-11T02:10:47.596Z,0.00
2019-05-11T02:11:47.596Z,0.00
2019-05-11T02:12:47.586Z,0.00
2019-05-11T02:13:47.571Z,0.00
2019-05-11T02:14:47.560Z,0.00
2019-05-11T02:15:47.542Z,0.00
2019-05-11T02:16:47.553Z,0.00
2019-05-11T02:17:47.525Z,0.00
2019-05-11T02:18:47.517Z,0.00
2019-05-11T02:19:47.508Z,0.00
2019-05-11T02:20:47.491Z,0.00
2019-05-11T02:21:47.488Z,0.00
2019-05-11T02:22:47.468Z,0.00
2019-05-11T02:23:47.457Z,0.00
2019-05-11T02:24:47.464Z,0.00
2019-05-11T02:25:47.435Z,0.00
2019-05-11T02:26:47.438Z,0.00
2019-05-11T02:27:47.414Z,0.00
2019-05-11T02:28:47.404Z,0.00
2019-05-11T02:29:47.393Z,0.00
2019-05-11T02:30:47.387Z,0.00
2019-05-11T02:31:47.384Z,0.00
2019-05-11T02:32:47.361Z,0.00
2019-05-11T02:33:47.353Z,0.00
2019-05-11T02:34:47.340Z,0.00
2019-05-11T02:35:47.350Z,0.00
2019-05-11T02:36:47.326Z,0.00
2019-05-11T02:37:47.308Z,0.00
2019-05-11T02:38:47.298Z,0.00
2019-05-11T02:39:47.287Z,0.00
2019-05-11T02:40:47.275Z,0.00
2019-05-11T02:41:47.308Z,0.00
2019-05-11T02:42:47.283Z,0.00
2019-05-11T02:43:47.250Z,0.00
2019-05-11T02:44:47.247Z,0.00
2019-05-11T02:45:47.222Z,0.00
2019-05-11T02:46:47.212Z,0.00
2019-05-11T02:47:47.214Z,0.00
2019-05-11T02:48:47.196Z,0.00
2019-05-11T02:49:47.180Z,0.00
2019-05-11T02:50:47.168Z,0.00
2019-05-11T02:51:47.160Z,0.00
2019-05-11T02:52:47.159Z,0.00
2019-05-11T02:53:47.136Z,0.00
2019-05-11T02:54:47.134Z,0.00
2019-05-11T02:55:47.115Z,0.00
2019-05-11T02:56:47.105Z,0.00
2019-05-11T02:57:47.103Z,0.00
2019-05-11T02:58:47.081Z,0.00
2019-05-11T02:59:47.071Z,0.00
2019-05-11T03:00:47.063Z,0.00
2019-05-11T03:01:47.055Z,0.00
2019-05-11T03:02:47.047Z,0.00
2019-05-11T03:03:47.029Z,5.62
2019-05-11T03:04:47.018Z,5.62
2019-05-11T03:05:47.007Z,5.62
2019-05-11T03:06:47.000Z,5.62
2019-05-11T03:07:47.020Z,5.62
2019-05-11T03:08:46.976Z,5.62
2019-05-11T03:09:46.964Z,5.62
2019-05-11T03:10:46.958Z,11.25
2019-05-11T03:11:55.826Z,11.25
2019-05-11T03:12:47.940Z,11.25
2019-05-11T03:13:46.920Z,11.25
2019-05-11T03:14:46.915Z,11.25
2019-05-11T03:15:46.899Z,16.88
2019-05-11T03:16:46.888Z,16.88
2019-05-11T03:17:46.885Z,16.88
2019-05-11T03:18:46.875Z,16.88
2019-05-11T03:19:46.861Z,22.50
2019-05-11T03:20:46.848Z,22.50
2019-05-11T03:21:46.837Z,22.50
2019-05-11T03:22:46.841Z,22.50
2019-05-11T03:23:46.817Z,28.12
2019-05-11T03:24:46.811Z,28.12
2019-05-11T03:25:46.792Z,33.75
2019-05-11T03:26:46.780Z,33.75
2019-05-11T03:27:46.780Z,33.75
2019-05-11T03:28:46.773Z,39.38
2019-05-11T03:29:46.750Z,39.38
2019-05-11T03:30:46.748Z,45.00
2019-05-11T03:31:46.742Z,45.00
2019-05-11T03:32:46.731Z,50.62
2019-05-11T03:33:46.706Z,50.62
2019-05-11T03:34:46.722Z,56.25
2019-05-11T03:35:46.863Z,56.25
2019-05-11T03:36:46.682Z,84.38
2019-05-11T03:37:46.672Z,112.50
2019-05-11T03:38:46.654Z,84.38
2019-05-11T03:39:46.643Z,73.12
2019-05-11T03:40:46.632Z,78.75
2019-05-11T03:41:46.622Z,95.62
2019-05-11T03:42:46.618Z,129.38
2019-05-11T03:43:46.599Z,146.25
2019-05-11T03:44:46.589Z,196.88
2019-05-11T03:45:46.589Z,292.50
2019-05-11T03:46:46.572Z,213.75
2019-05-11T03:47:46.566Z,146.25
2019-05-11T03:48:46.552Z,146.25
2019-05-11T03:49:46.534Z,213.75
2019-05-11T03:50:46.526Z,405.00
2019-05-11T03:51:46.514Z,354.38
2019-05-11T03:52:46.525Z,180.00
2019-05-11T03:53:46.490Z,112.50
2019-05-11T03:54:46.481Z,129.38
2019-05-11T03:55:46.468Z,106.88
2019-05-11T03:56:46.458Z,118.12
2019-05-11T03:57:46.448Z,168.75
2019-05-11T03:58:46.481Z,191.25
2019-05-11T03:59:46.491Z,123.75
2019-05-11T04:00:46.415Z,106.88
2019-05-11T04:01:46.402Z,123.75
2019-05-11T04:02:46.389Z,163.12
2019-05-11T04:03:46.392Z,202.50
2019-05-11T04:04:46.440Z,275.62
2019-05-11T04:05:46.358Z,495.00
2019-05-11T04:06:46.348Z,528.75
2019-05-11T04:07:46.345Z,286.88
2019-05-11T04:08:46.334Z,123.75
2019-05-11T04:09:46.320Z,67.50
2019-05-11T04:10:46.315Z,61.88
2019-05-11T04:11:46.294Z,61.88
2019-05-11T04:12:46.282Z,61.88
2019-05-11T04:13:46.283Z,61.88
2019-05-11T04:14:46.264Z,56.25
2019-05-11T04:15:46.257Z,50.62
2019-05-11T04:16:46.258Z,39.38
2019-05-11T04:17:46.227Z,45.00
2019-05-11T04:18:46.229Z,45.00
2019-05-11T04:19:46.213Z,50.62
2019-05-11T04:20:46.195Z,50.62
2019-05-11T04:21:46.183Z,56.25
2019-05-11T04:22:46.172Z,67.50
2019-05-11T04:23:46.178Z,73.12
2019-05-11T04:24:46.151Z,73.12
2019-05-11T04:25:46.144Z,73.12
2019-05-11T04:26:46.129Z,78.75
2019-05-11T04:27:46.132Z,84.38
2019-05-11T04:28:46.116Z,90.00
2019-05-11T04:29:46.095Z,95.62
2019-05-11T04:30:46.084Z,95.62
2019-05-11T04:31:46.077Z,101.25
2019-05-11T04:32:46.062Z,101.25
2019-05-11T04:33:46.059Z,101.25
2019-05-11T04:34:46.041Z,101.25
2019-05-11T04:35:46.031Z,95.62
2019-05-11T04:36:46.019Z,90.00
2019-05-11T04:37:46.013Z,84.38
2019-05-11T04:38:46.004Z,78.75
2019-05-11T04:39:45.986Z,73.12
2019-05-11T04:40:45.974Z,73.12
2019-05-11T04:41:45.963Z,78.75
2019-05-11T04:42:54.833Z,78.75
2019-05-11T04:43:46.949Z,78.75
2019-05-11T04:44:45.931Z,78.75
2019-05-11T04:45:45.919Z,84.38
2019-05-11T04:46:45.907Z,84.38
2019-05-11T04:47:45.899Z,84.38
2019-05-11T04:48:45.898Z,84.38
2019-05-11T04:49:45.876Z,84.38
2019-05-11T04:50:45.867Z,78.75
2019-05-11T04:51:45.853Z,78.75
2019-05-11T04:52:45.845Z,73.12
2019-05-11T04:53:45.846Z,73.12
2019-05-11T04:54:45.820Z,67.50
2019-05-11T04:55:45.811Z,67.50
2019-05-11T04:56:45.805Z,67.50
2019-05-11T04:57:45.790Z,67.50
2019-05-11T04:58:45.793Z,78.75
2019-05-11T04:59:45.770Z,84.38
2019-05-11T05:00:45.763Z,90.00
2019-05-11T05:01:45.756Z,101.25
2019-05-11T05:02:46.122Z,112.50
2019-05-11T05:03:47.538Z,129.38
2019-05-11T05:04:46.711Z,135.00
2019-05-11T05:05:45.706Z,140.62
2019-05-11T05:06:59.028Z,146.25
2019-05-11T05:07:48.988Z,157.50
2019-05-11T05:08:45.668Z,174.38
2019-05-11T05:09:45.725Z,208.12
2019-05-11T05:10:45.650Z,241.88
2019-05-11T05:11:45.642Z,298.12
2019-05-11T05:12:50.769Z,326.25
2019-05-11T05:13:46.614Z,433.12
2019-05-11T05:14:45.614Z,393.75
2019-05-11T05:15:45.592Z,1080.00
2019-05-11T05:16:45.583Z,821.25
2019-05-11T05:17:45.571Z,686.25
2019-05-11T05:18:45.575Z,1147.50
2019-05-11T05:19:45.562Z,860.62
2019-05-11T05:20:45.538Z,855.00
2019-05-11T05:21:45.530Z,1704.38
2019-05-11T05:22:45.517Z,1968.75
2019-05-11T05:23:45.507Z,1440.00
2019-05-11T05:24:45.505Z,1001.25
2019-05-11T05:25:45.483Z,2340.00
2019-05-11T05:26:45.474Z,2148.75
2019-05-11T05:27:45.462Z,1648.12
2019-05-11T05:28:45.971Z,2773.12
2019-05-11T05:29:45.449Z,2812.50
2019-05-11T05:30:45.431Z,2587.50
2019-05-11T05:31:45.418Z,2745.00
2019-05-11T05:32:45.409Z,2266.88
2019-05-11T05:33:45.397Z,2851.88
2019-05-11T05:34:45.398Z,2278.12
2019-05-11T05:35:45.376Z,2880.00
2019-05-11T05:36:45.369Z,1946.25
2019-05-11T05:37:45.358Z,3386.25
2019-05-11T05:38:45.346Z,3093.75
2019-05-11T05:39:45.341Z,3363.75
2019-05-11T05:40:45.329Z,2880.00
2019-05-11T05:41:56.493Z,2418.75
2019-05-11T05:42:46.299Z,1839.38
2019-05-11T05:43:45.289Z,1794.38
2019-05-11T05:44:45.288Z,2334.38
2019-05-11T05:45:45.269Z,2475.00
2019-05-11T05:46:45.259Z,2514.38
2019-05-11T05:47:45.251Z,1760.62
2019-05-11T05:48:45.240Z,1260.00
2019-05-11T05:49:45.238Z,2559.38
2019-05-11T05:50:45.216Z,1586.25
2019-05-11T05:51:45.205Z,1265.62
2019-05-11T05:52:45.194Z,2632.50
2019-05-11T05:53:45.196Z,2615.62
2019-05-11T05:54:45.185Z,3571.88
2019-05-11T05:55:45.163Z,3785.62
2019-05-11T05:56:45.156Z,3836.25
2019-05-11T05:57:45.143Z,3020.62
2019-05-11T05:58:45.131Z,1918.12
2019-05-11T05:59:45.129Z,3082.50
2019-05-11T06:00:45.120Z,928.12
2019-05-11T06:01:45.100Z,1299.38
2019-05-11T06:02:45.266Z,1147.50
2019-05-11T06:03:45.083Z,776.25
2019-05-11T06:04:45.078Z,1108.12
2019-05-11T06:05:45.063Z,1096.88
2019-05-11T06:06:45.047Z,2233.12
2019-05-11T06:07:45.037Z,2115.00
2019-05-11T06:08:45.025Z,1721.25
2019-05-11T06:09:45.024Z,2396.25
2019-05-11T06:10:45.003Z,2874.38
2019-05-11T06:11:45.000Z,2835.00
2019-05-11T06:12:44.996Z,3285.00
2019-05-11T06:13:46.010Z,3690.00
2019-05-11T06:14:44.994Z,3847.50
2019-05-11T06:15:44.950Z,3555.00
2019-05-11T06:16:44.941Z,3048.75
2019-05-11T06:17:44.940Z,3380.62
2019-05-11T06:18:44.920Z,3504.38
2019-05-11T06:19:44.910Z,4021.88
2019-05-11T06:20:44.908Z,3813.75
2019-05-11T06:21:44.888Z,3875.62
2019-05-11T06:22:44.881Z,4106.25
2019-05-11T06:23:44.869Z,4016.25
2019-05-11T06:24:44.858Z,4145.62
2019-05-11T06:25:44.857Z,4100.62
2019-05-11T06:26:44.855Z,4134.38
2019-05-11T06:27:44.828Z,4083.75
2019-05-11T06:28:44.818Z,4140.00
2019-05-11T06:29:44.807Z,3999.38
2019-05-11T06:30:44.808Z,3785.62
2019-05-11T06:31:44.788Z,3465.00
2019-05-11T06:32:44.777Z,3363.75
2019-05-11T06:33:44.766Z,3330.00
2019-05-11T06:34:44.757Z,3588.75
2019-05-11T06:35:44.768Z,3290.62
2019-05-11T06:36:44.737Z,3211.88
2019-05-11T06:37:44.733Z,3639.38
2019-05-11T06:38:44.720Z,3510.00
2019-05-11T06:39:44.705Z,3735.00
2019-05-11T06:40:44.705Z,4224.38
2019-05-11T06:41:44.685Z,4410.00
2019-05-11T06:42:44.675Z,4674.38
2019-05-11T06:44:00.480Z,4888.12
2019-05-11T06:44:45.659Z,5062.50
2019-05-11T06:45:44.652Z,5805.00
2019-05-11T06:46:44.634Z,6620.62
2019-05-11T06:47:44.623Z,4927.50
2019-05-11T06:48:44.615Z,2278.12
2019-05-11T06:49:44.606Z,1440.00
2019-05-11T06:50:44.603Z,1327.50
2019-05-11T06:51:44.583Z,1243.12
2019-05-11T06:52:44.573Z,1254.38
2019-05-11T06:53:44.563Z,1305.00
2019-05-11T06:54:44.553Z,1108.12
2019-05-11T06:55:44.552Z,1046.25
2019-05-11T06:56:44.534Z,956.25
2019-05-11T06:57:44.525Z,714.38
2019-05-11T06:58:45.554Z,630.00
2019-05-11T06:59:44.499Z,624.38
2019-05-11T07:00:44.499Z,601.88
2019-05-11T07:01:44.478Z,601.88
2019-05-11T07:02:44.468Z,590.62
2019-05-11T07:03:44.456Z,585.00
2019-05-11T07:04:44.447Z,590.62
2019-05-11T07:05:44.444Z,579.38
2019-05-11T07:06:44.426Z,556.88
2019-05-11T07:07:47.685Z,562.50
2019-05-11T07:08:44.402Z,556.88
2019-05-11T07:09:44.394Z,545.62
2019-05-11T07:10:44.391Z,500.62
2019-05-11T07:11:44.374Z,528.75
2019-05-11T07:12:44.361Z,528.75
2019-05-11T07:13:44.351Z,517.50
2019-05-11T07:14:44.342Z,500.62
2019-05-11T07:15:44.340Z,489.38
2019-05-11T07:16:44.319Z,489.38
2019-05-11T07:17:44.311Z,478.12
2019-05-11T07:18:44.298Z,472.50
2019-05-11T07:19:47.379Z,483.75
2019-05-11T07:20:50.500Z,466.88
2019-05-11T07:21:45.263Z,466.88
2019-05-11T07:22:44.258Z,466.88
2019-05-11T07:23:44.243Z,472.50
2019-05-11T07:24:44.235Z,466.88
2019-05-11T07:25:44.237Z,472.50
2019-05-11T07:26:44.211Z,478.12
2019-05-11T07:27:44.200Z,466.88
2019-05-11T07:28:44.192Z,472.50
2019-05-11T07:29:44.178Z,461.25
2019-05-11T07:30:44.181Z,461.25
2019-05-11T07:31:44.156Z,450.00
2019-05-11T07:32:44.146Z,444.38
2019-05-11T07:33:44.136Z,461.25
2019-05-11T07:34:44.124Z,461.25
2019-05-11T07:35:44.115Z,461.25
2019-05-11T07:36:44.113Z,466.88
2019-05-11T07:37:44.093Z,466.88
2019-05-11T07:38:44.082Z,461.25
2019-05-11T07:39:44.072Z,461.25
2019-05-11T07:40:44.060Z,466.88
2019-05-11T07:41:44.059Z,466.88
2019-05-11T07:42:44.039Z,455.62
2019-05-11T07:43:44.027Z,455.62
2019-05-11T07:44:44.016Z,444.38
2019-05-11T07:45:44.006Z,438.75
2019-05-11T07:46:44.011Z,433.12
2019-05-11T07:47:43.985Z,433.12
2019-05-11T07:48:43.974Z,427.50
2019-05-11T07:49:43.961Z,427.50
2019-05-11T07:50:43.955Z,438.75
2019-05-11T07:51:43.948Z,427.50
2019-05-11T07:52:43.929Z,421.88
2019-05-11T07:53:43.919Z,421.88
2019-05-11T07:54:43.911Z,421.88
2019-05-11T07:55:43.897Z,421.88
2019-05-11T07:56:43.899Z,427.50
2019-05-11T07:57:43.875Z,427.50
2019-05-11T07:58:43.863Z,410.62
2019-05-11T07:59:43.854Z,405.00
2019-05-11T08:00:43.843Z,376.88
2019-05-11T08:01:43.842Z,376.88
2019-05-11T08:02:43.823Z,348.75
2019-05-11T08:03:43.810Z,371.25
2019-05-11T08:04:43.801Z,371.25
2019-05-11T08:05:43.788Z,360.00
2019-05-11T08:06:43.786Z,354.38
2019-05-11T08:07:43.767Z,348.75
2019-05-11T08:08:43.757Z,348.75
2019-05-11T08:09:43.747Z,348.75
2019-05-11T08:10:43.734Z,343.12
2019-05-11T08:11:43.733Z,337.50
2019-05-11T08:12:43.713Z,331.88
2019-05-11T08:13:43.704Z,326.25
2019-05-11T08:14:56.267Z,326.25
2019-05-11T08:15:44.678Z,331.88
2019-05-11T08:16:43.678Z,326.25
2019-05-11T08:17:43.662Z,320.62
2019-05-11T08:18:43.647Z,337.50
2019-05-11T08:19:43.639Z,427.50
2019-05-11T08:20:43.627Z,472.50
2019-05-11T08:21:43.624Z,405.00
2019-05-11T08:22:43.606Z,343.12
2019-05-11T08:23:43.594Z,320.62
2019-05-11T08:24:43.587Z,320.62
2019-05-11T08:25:43.577Z,315.00
2019-05-11T08:26:43.571Z,315.00
2019-05-11T08:27:43.550Z,315.00
2019-05-11T08:28:43.545Z,315.00
2019-05-11T08:29:43.529Z,320.62
2019-05-11T08:30:43.519Z,315.00
2019-05-11T08:31:43.538Z,303.75
2019-05-11T08:32:43.497Z,315.00
2019-05-11T08:33:43.485Z,315.00
2019-05-11T08:34:43.479Z,315.00
2019-05-11T08:35:43.462Z,309.38
2019-05-11T08:36:43.455Z,309.38
2019-05-11T08:37:43.452Z,309.38
2019-05-11T08:38:43.434Z,303.75
2019-05-11T08:39:43.419Z,309.38
2019-05-11T08:40:43.408Z,298.12
2019-05-11T08:41:43.398Z,303.75
2019-05-11T08:42:43.400Z,298.12
2019-05-11T08:43:43.375Z,331.88
2019-05-11T08:44:43.363Z,337.50
2019-05-11T08:45:43.355Z,348.75
2019-05-11T08:46:43.342Z,348.75
2019-05-11T08:47:43.338Z,348.75
2019-05-11T08:48:43.320Z,343.12
2019-05-11T08:49:43.309Z,343.12
2019-05-11T08:50:43.298Z,343.12
2019-05-11T08:51:43.288Z,337.50
2019-05-11T08:52:43.285Z,320.62
2019-05-11T08:53:43.266Z,343.12
2019-05-11T08:54:43.257Z,343.12
2019-05-11T08:55:43.244Z,343.12
2019-05-11T08:56:43.232Z,343.12
2019-05-11T08:57:43.230Z,348.75
2019-05-11T08:58:43.211Z,331.88
2019-05-11T08:59:43.199Z,331.88
2019-05-11T09:00:43.191Z,331.88
2019-05-11T09:01:44.755Z,331.88
2019-05-11T09:02:46.656Z,326.25
2019-05-11T09:03:44.154Z,331.88
2019-05-11T09:04:43.150Z,331.88
2019-05-11T09:05:43.159Z,343.12
2019-05-11T09:06:43.124Z,348.75
2019-05-11T09:07:43.121Z,354.38
2019-05-11T09:08:43.102Z,343.12
2019-05-11T09:09:43.104Z,348.75
2019-05-11T09:10:43.080Z,348.75
2019-05-11T09:11:43.069Z,343.12
2019-05-11T09:12:43.067Z,348.75
2019-05-11T09:13:43.047Z,331.88
2019-05-11T09:14:43.044Z,331.88
2019-05-11T09:15:43.024Z,331.88
2019-05-11T09:16:43.014Z,320.62
2019-05-11T09:17:43.013Z,303.75
2019-05-11T09:18:42.994Z,343.12
2019-05-11T09:19:42.980Z,343.12
2019-05-11T09:20:42.970Z,348.75
2019-05-11T09:21:42.958Z,360.00
2019-05-11T09:22:42.958Z,354.38
2019-05-11T09:23:42.938Z,286.88
2019-05-11T09:24:42.931Z,253.12
2019-05-11T09:25:42.916Z,247.50
2019-05-11T09:26:42.905Z,247.50
2019-05-11T09:27:43.527Z,275.62
2019-05-11T09:28:42.886Z,303.75
2019-05-11T09:29:42.877Z,315.00
2019-05-11T09:30:42.861Z,354.38
2019-05-11T09:31:42.858Z,365.62
2019-05-11T09:32:42.849Z,360.00
2019-05-11T09:33:42.830Z,371.25
2019-05-11T09:34:42.817Z,360.00
2019-05-11T09:35:49.897Z,348.75
2019-05-11T09:36:43.795Z,354.38
2019-05-11T09:37:42.818Z,348.75
2019-05-11T09:38:42.776Z,326.25
2019-05-11T09:39:42.764Z,348.75
2019-05-11T09:40:42.753Z,354.38
2019-05-11T09:41:42.746Z,343.12
2019-05-11T09:42:42.736Z,326.25
2019-05-11T09:43:42.730Z,320.62
2019-05-11T09:44:42.709Z,315.00
2019-05-11T09:45:48.297Z,326.25
2019-05-11T09:46:43.687Z,348.75
2019-05-11T09:47:42.682Z,348.75
2019-05-11T09:48:42.676Z,343.12
2019-05-11T09:49:47.457Z,360.00
2019-05-11T09:50:43.643Z,360.00
2019-05-11T09:51:42.635Z,360.00
2019-05-11T09:52:42.632Z,360.00
2019-05-11T09:53:42.630Z,354.38
2019-05-11T09:54:42.602Z,365.62
2019-05-11T09:55:42.595Z,365.62
2019-05-11T09:56:42.581Z,360.00
2019-05-11T09:57:42.572Z,360.00
2019-05-11T09:58:42.567Z,360.00
2019-05-11T09:59:42.549Z,354.38
2019-05-11T10:00:42.537Z,354.38
2019-05-11T10:01:42.528Z,348.75
2019-05-11T10:02:42.515Z,337.50
2019-05-11T10:03:42.514Z,331.88
2019-05-11T10:04:42.494Z,326.25
2019-05-11T10:05:42.483Z,320.62
2019-05-11T10:06:42.474Z,320.62
2019-05-11T10:07:42.461Z,315.00
2019-05-11T10:08:42.461Z,320.62
2019-05-11T10:09:42.439Z,320.62
2019-05-11T10:10:42.431Z,326.25
2019-05-11T10:11:42.421Z,326.25
2019-05-11T10:12:42.408Z,331.88
2019-05-11T10:13:42.404Z,331.88
2019-05-11T10:14:42.385Z,337.50
2019-05-11T10:15:42.374Z,348.75
2019-05-11T10:16:42.368Z,348.75
2019-05-11T10:17:42.352Z,343.12
2019-05-11T10:18:42.350Z,343.12
2019-05-11T10:19:42.332Z,343.12
2019-05-11T10:20:42.321Z,331.88
2019-05-11T10:21:42.312Z,337.50
2019-05-11T10:22:42.298Z,331.88
2019-05-11T10:23:42.707Z,326.25
2019-05-11T10:24:42.278Z,315.00
2019-05-11T10:25:42.265Z,315.00
2019-05-11T10:26:42.261Z,315.00
2019-05-11T10:27:42.244Z,315.00
2019-05-11T10:28:42.244Z,315.00
2019-05-11T10:29:42.224Z,315.00
2019-05-11T10:30:42.211Z,309.38
2019-05-11T10:31:42.201Z,309.38
2019-05-11T10:32:42.190Z,315.00
2019-05-11T10:33:42.194Z,309.38
2019-05-11T10:34:42.169Z,309.38
2019-05-11T10:35:42.157Z,309.38
2019-05-11T10:36:42.147Z,309.38
2019-05-11T10:37:42.136Z,303.75
2019-05-11T10:38:42.139Z,303.75
2019-05-11T10:39:42.115Z,303.75
2019-05-11T10:40:42.105Z,303.75
2019-05-11T10:41:42.092Z,298.12
2019-05-11T10:42:42.082Z,298.12
2019-05-11T10:43:42.078Z,298.12
2019-05-11T10:44:42.060Z,298.12
2019-05-11T10:45:42.053Z,286.88
2019-05-11T10:46:42.038Z,292.50
2019-05-11T10:47:42.027Z,292.50
2019-05-11T10:48:42.026Z,292.50
2019-05-11T10:49:42.011Z,292.50
2019-05-11T10:50:41.995Z,286.88
2019-05-11T10:51:41.992Z,292.50
2019-05-11T10:52:41.973Z,292.50
2019-05-11T10:53:41.971Z,286.88
2019-05-11T10:54:41.991Z,281.25
2019-05-11T10:55:41.942Z,275.62
2019-05-11T10:56:41.932Z,298.12
2019-05-11T10:57:41.919Z,286.88
2019-05-11T10:58:41.952Z,286.88
2019-05-11T10:59:41.897Z,292.50
2019-05-11T11:00:41.889Z,292.50
2019-05-11T11:01:41.879Z,292.50
2019-05-11T11:02:41.866Z,292.50
2019-05-11T11:03:41.853Z,298.12
2019-05-11T11:04:41.851Z,298.12
2019-05-11T11:05:41.834Z,298.12
2019-05-11T11:06:41.821Z,298.12
2019-05-11T11:07:41.811Z,298.12
2019-05-11T11:08:41.802Z,298.12
2019-05-11T11:09:41.803Z,303.75
2019-05-11T11:10:41.781Z,298.12
2019-05-11T11:11:41.771Z,303.75
2019-05-11T11:12:41.755Z,320.62
2019-05-11T11:13:41.747Z,320.62
2019-05-11T11:14:41.745Z,303.75
2019-05-11T11:15:41.723Z,309.38
2019-05-11T11:16:42.939Z,298.12
2019-05-11T11:17:41.702Z,309.38
2019-05-11T11:18:41.696Z,303.75
2019-05-11T11:19:41.688Z,298.12
2019-05-11T11:20:41.669Z,298.12
2019-05-11T11:21:41.659Z,286.88
2019-05-11T11:22:44.283Z,286.88
2019-05-11T11:23:41.636Z,292.50
2019-05-11T11:24:41.634Z,292.50
2019-05-11T11:25:41.614Z,292.50
2019-05-11T11:26:41.606Z,298.12
2019-05-11T11:27:41.591Z,286.88
2019-05-11T11:28:41.583Z,275.62
2019-05-11T11:29:41.583Z,298.12
2019-05-11T11:30:41.560Z,286.88
2019-05-11T11:31:41.550Z,292.50
2019-05-11T11:32:41.538Z,281.25
2019-05-11T11:33:41.526Z,270.00
2019-05-11T11:34:41.525Z,264.38
2019-05-11T11:35:41.508Z,264.38
2019-05-11T11:36:41.496Z,253.12
2019-05-11T11:37:41.483Z,247.50
2019-05-11T11:38:41.470Z,247.50
2019-05-11T11:39:41.469Z,247.50
2019-05-11T11:40:42.917Z,247.50
2019-05-11T11:41:41.438Z,247.50
2019-05-11T11:42:41.426Z,253.12
2019-05-11T11:43:41.415Z,253.12
2019-05-11T11:44:41.414Z,258.75
2019-05-11T11:45:41.393Z,258.75
2019-05-11T11:46:54.242Z,253.12
2019-05-11T11:47:42.409Z,270.00
2019-05-11T11:48:41.363Z,275.62
2019-05-11T11:49:41.358Z,275.62
2019-05-11T11:50:41.338Z,281.25
2019-05-11T11:51:41.328Z,286.88
2019-05-11T11:52:41.318Z,286.88
2019-05-11T11:53:41.305Z,286.88
2019-05-11T11:54:41.313Z,281.25
2019-05-11T11:55:41.283Z,286.88
2019-05-11T11:56:41.272Z,286.88
2019-05-11T11:57:41.261Z,281.25
2019-05-11T11:58:41.254Z,281.25
2019-05-11T11:59:41.246Z,275.62
2019-05-11T12:00:41.239Z,275.62
2019-05-11T12:01:41.222Z,275.62
2019-05-11T12:02:41.208Z,270.00
2019-05-11T12:03:41.195Z,270.00
2019-05-11T12:04:41.194Z,270.00
2019-05-11T12:05:41.183Z,258.75
2019-05-11T12:06:41.162Z,270.00
2019-05-11T12:07:41.153Z,281.25
2019-05-11T12:08:41.142Z,281.25
2019-05-11T12:09:41.138Z,281.25
2019-05-11T12:10:41.129Z,281.25
2019-05-11T12:11:41.109Z,281.25
2019-05-11T12:12:41.097Z,281.25
2019-05-11T12:13:41.087Z,286.88
2019-05-11T12:14:41.075Z,275.62
2019-05-11T12:15:41.073Z,275.62
2019-05-11T12:16:41.054Z,270.00
2019-05-11T12:17:41.045Z,264.38
2019-05-11T12:18:41.031Z,258.75
2019-05-11T12:19:41.020Z,253.12
2019-05-11T12:20:41.019Z,253.12
2019-05-11T12:21:41.003Z,247.50
2019-05-11T12:22:40.988Z,247.50
2019-05-11T12:23:40.976Z,247.50
2019-05-11T12:24:40.970Z,241.88
2019-05-11T12:25:40.961Z,236.25
2019-05-11T12:26:40.944Z,241.88
2019-05-11T12:27:40.930Z,241.88
2019-05-11T12:28:40.922Z,236.25
2019-05-11T12:29:40.909Z,236.25
2019-05-11T12:30:40.905Z,236.25
2019-05-11T12:31:40.886Z,236.25
2019-05-11T12:32:40.877Z,236.25
2019-05-11T12:33:40.865Z,230.62
2019-05-11T12:34:40.860Z,225.00
2019-05-11T12:35:40.852Z,219.38
2019-05-11T12:36:40.831Z,213.75
2019-05-11T12:37:40.821Z,202.50
2019-05-11T12:38:40.810Z,191.25
2019-05-11T12:39:40.802Z,185.62